sensor_id;sensor_type;location;lat;lon;timestamp;pressure;altitude;pressure_sealevel;temperature;humidity
1652;BME280;823;49.028;8.454;2022-10-16T00:02:41;100211.25;;;19.30;69.54
1652;BME280;823;49.028;8.454;2022-10-16T00:07:41;100205.69;;;19.34;69.41
1652;BME280;823;49.028;8.454;2022-10-16T00:12:42;100216.06;;;19.36;69.36
1652;BME280;823;49.028;8.454;2022-10-16T00:17:42;100204.72;;;19.35;69.41
1652;BME280;823;49.028;8.454;2022-10-16T00:22:42;100206.41;;;19.36;69.28
1652;BME280;823;49.028;8.454;2022-10-16T00:27:43;100211.41;;;19.39;69.32
1652;BME280;823;49.028;8.454;2022-10-16T00:32:43;100207.97;;;19.39;69.27
1652;BME280;823;49.028;8.454;2022-10-16T00:37:43;100209.78;;;19.38;69.27
1652;BME280;823;49.028;8.454;2022-10-16T00:42:44;100215.59;;;19.42;69.19
1652;BME280;823;49.028;8.454;2022-10-16T00:47:45;100213.09;;;19.40;69.29
1652;BME280;823;49.028;8.454;2022-10-16T00:52:51;100203.22;;;19.44;69.28
1652;BME280;823;49.028;8.454;2022-10-16T00:57:52;100203.22;;;19.44;69.20
1652;BME280;823;49.028;8.454;2022-10-16T01:02:58;100218.75;;;19.47;69.20
1652;BME280;823;49.028;8.454;2022-10-16T01:13:11;100241.41;;;19.48;69.08
1652;BME280;823;49.028;8.454;2022-10-16T01:33:51;100230.53;;;19.42;68.91
1652;BME280;823;49.028;8.454;2022-10-16T01:39:00;100215.00;;;19.38;69.06
1652;BME280;823;49.028;8.454;2022-10-16T01:44:15;100224.66;;;19.38;69.01
1652;BME280;823;49.028;8.454;2022-10-16T01:49:18;100215.22;;;19.35;69.41
1652;BME280;823;49.028;8.454;2022-10-16T01:54:22;100214.38;;;19.35;69.22
1652;BME280;823;49.028;8.454;2022-10-16T01:59:26;100214.38;;;19.35;69.13
1652;BME280;823;49.028;8.454;2022-10-16T02:04:39;100220.47;;;19.35;69.29
1652;BME280;823;49.028;8.454;2022-10-16T02:09:42;100213.75;;;19.31;69.10
1652;BME280;823;49.028;8.454;2022-10-16T02:14:43;100224.47;;;19.28;68.98
1652;BME280;823;49.028;8.454;2022-10-16T02:19:45;100228.03;;;19.27;69.00
1652;BME280;823;49.028;8.454;2022-10-16T02:24:57;100233.41;;;19.26;68.82
1652;BME280;823;49.028;8.454;2022-10-16T02:30:07;100236.47;;;19.19;69.04
1652;BME280;823;49.028;8.454;2022-10-16T02:35:11;100239.31;;;19.16;69.16
1652;BME280;823;49.028;8.454;2022-10-16T02:40:13;100237.75;;;19.14;69.00
1652;BME280;823;49.028;8.454;2022-10-16T02:45:14;100236.91;;;19.13;68.99
1652;BME280;823;49.028;8.454;2022-10-16T02:50:14;100232.09;;;19.07;69.01
1652;BME280;823;49.028;8.454;2022-10-16T02:55:15;100241.75;;;19.07;68.79
1652;BME280;823;49.028;8.454;2022-10-16T03:00:16;100252.34;;;19.05;68.81
1652;BME280;823;49.028;8.454;2022-10-16T03:05:17;100258.53;;;19.04;68.87
1652;BME280;823;49.028;8.454;2022-10-16T03:10:18;100265.66;;;19.02;68.96
1652;BME280;823;49.028;8.454;2022-10-16T03:15:18;100265.66;;;19.02;68.69
1652;BME280;823;49.028;8.454;2022-10-16T03:20:19;100253.72;;;18.98;68.74
1652;BME280;823;49.028;8.454;2022-10-16T03:25:19;100253.13;;;18.94;68.83
1652;BME280;823;49.028;8.454;2022-10-16T03:30:19;100253.41;;;18.89;68.61
1652;BME280;823;49.028;8.454;2022-10-16T03:35:24;100254.38;;;18.88;68.68
1652;BME280;823;49.028;8.454;2022-10-16T03:40:24;100253.41;;;18.89;69.03
1652;BME280;823;49.028;8.454;2022-10-16T03:45:25;100265.47;;;18.92;68.93
1652;BME280;823;49.028;8.454;2022-10-16T03:50:25;100267.97;;;18.94;69.02
1652;BME280;823;49.028;8.454;2022-10-16T03:55:25;100259.41;;;18.92;69.03
1652;BME280;823;49.028;8.454;2022-10-16T04:00:26;100248.06;;;18.91;68.92
1652;BME280;823;49.028;8.454;2022-10-16T04:05:26;100259.28;;;18.93;68.96
1652;BME280;823;49.028;8.454;2022-10-16T04:10:27;100251.44;;;18.93;68.99
1652;BME280;823;49.028;8.454;2022-10-16T04:15:27;100254.16;;;18.92;69.02
1652;BME280;823;49.028;8.454;2022-10-16T04:20:27;100264.53;;;18.93;69.21
1652;BME280;823;49.028;8.454;2022-10-16T04:25:28;100275.03;;;18.93;68.91
1652;BME280;823;49.028;8.454;2022-10-16T04:30:28;100282.03;;;18.93;68.88
1652;BME280;823;49.028;8.454;2022-10-16T04:35:29;100287.06;;;18.96;68.94
1652;BME280;823;49.028;8.454;2022-10-16T04:40:29;100300.28;;;18.94;68.94
1652;BME280;823;49.028;8.454;2022-10-16T04:45:32;100294.81;;;18.97;68.63
1652;BME280;823;49.028;8.454;2022-10-16T04:50:33;100312.31;;;18.97;68.80
1652;BME280;823;49.028;8.454;2022-10-16T04:55:33;100297.44;;;18.97;68.86
1652;BME280;823;49.028;8.454;2022-10-16T05:00:34;100297.34;;;18.99;68.77
1652;BME280;823;49.028;8.454;2022-10-16T05:05:35;100312.31;;;18.97;68.94
1652;BME280;823;49.028;8.454;2022-10-16T05:10:36;100298.50;;;18.95;68.84
1652;BME280;823;49.028;8.454;2022-10-16T05:15:36;100301.34;;;18.92;68.92
1652;BME280;823;49.028;8.454;2022-10-16T05:20:37;100305.72;;;18.91;68.78
1652;BME280;823;49.028;8.454;2022-10-16T05:25:37;100309.31;;;18.90;69.09
1652;BME280;823;49.028;8.454;2022-10-16T05:30:38;100316.31;;;18.89;68.86
1652;BME280;823;49.028;8.454;2022-10-16T05:35:38;100310.97;;;18.91;68.63
1652;BME280;823;49.028;8.454;2022-10-16T05:40:39;100326.06;;;18.87;68.95
1652;BME280;823;49.028;8.454;2022-10-16T05:45:39;100322.53;;;18.88;68.88
1652;BME280;823;49.028;8.454;2022-10-16T05:50:40;100330.28;;;18.90;68.67
1652;BME280;823;49.028;8.454;2022-10-16T05:55:40;100331.09;;;18.91;68.93
1652;BME280;823;49.028;8.454;2022-10-16T06:00:40;100310.34;;;18.87;68.67
1652;BME280;823;49.028;8.454;2022-10-16T06:05:41;100313.34;;;18.81;68.76
1652;BME280;823;49.028;8.454;2022-10-16T06:10:42;100314.09;;;18.83;68.66
1652;BME280;823;49.028;8.454;2022-10-16T06:15:43;100343.63;;;18.85;69.09
1652;BME280;823;49.028;8.454;2022-10-16T06:20:44;100343.53;;;18.87;68.69
1652;BME280;823;49.028;8.454;2022-10-16T06:25:44;100331.69;;;18.81;68.69
1652;BME280;823;49.028;8.454;2022-10-16T06:30:44;100349.56;;;18.89;68.59
1652;BME280;823;49.028;8.454;2022-10-16T06:35:45;100353.63;;;18.93;68.64
1652;BME280;823;49.028;8.454;2022-10-16T06:40:46;100355.16;;;18.83;68.86
1652;BME280;823;49.028;8.454;2022-10-16T06:45:56;100364.72;;;18.97;68.55
1652;BME280;823;49.028;8.454;2022-10-16T06:56:13;100364.94;;;18.94;68.60
1652;BME280;823;49.028;8.454;2022-10-16T07:01:15;100369.47;;;18.92;69.06
1652;BME280;823;49.028;8.454;2022-10-16T07:06:18;100367.16;;;19.00;69.06
1652;BME280;823;49.028;8.454;2022-10-16T07:11:21;100372.69;;;18.95;69.35
1652;BME280;823;49.028;8.454;2022-10-16T07:16:25;100375.34;;;19.08;69.06
1652;BME280;823;49.028;8.454;2022-10-16T07:21:28;100381.38;;;19.21;69.03
1652;BME280;823;49.028;8.454;2022-10-16T07:26:31;100385.88;;;19.32;69.01
1652;BME280;823;49.028;8.454;2022-10-16T07:31:31;100396.47;;;19.44;68.67
1652;BME280;823;49.028;8.454;2022-10-16T07:36:32;100404.13;;;19.47;68.72
1652;BME280;823;49.028;8.454;2022-10-16T07:41:32;100413.75;;;19.59;68.83
1652;BME280;823;49.028;8.454;2022-10-16T07:46:36;100412.16;;;19.69;68.89
1652;BME280;823;49.028;8.454;2022-10-16T07:51:37;100435.03;;;19.80;68.77
1652;BME280;823;49.028;8.454;2022-10-16T07:56:38;100435.44;;;19.87;68.59
1652;BME280;823;49.028;8.454;2022-10-16T08:01:39;100449.69;;;19.96;68.22
1652;BME280;823;49.028;8.454;2022-10-16T08:06:40;100454.59;;;20.00;68.41
1652;BME280;823;49.028;8.454;2022-10-16T08:11:40;100440.94;;;20.08;68.23
1652;BME280;823;49.028;8.454;2022-10-16T08:16:40;100443.00;;;20.16;68.45
1652;BME280;823;49.028;8.454;2022-10-16T08:21:41;100446.06;;;20.34;68.70
1652;BME280;823;49.028;8.454;2022-10-16T08:26:41;100437.91;;;20.50;68.49
1652;BME280;823;49.028;8.454;2022-10-16T08:31:42;100451.09;;;20.61;68.41
1652;BME280;823;49.028;8.454;2022-10-16T08:36:42;100453.19;;;20.69;67.73
1652;BME280;823;49.028;8.454;2022-10-16T08:47:17;100472.94;;;20.86;67.40
1652;BME280;823;49.028;8.454;2022-10-16T08:52:18;100488.59;;;20.87;66.83
1652;BME280;823;49.028;8.454;2022-10-16T08:57:20;100485.59;;;20.92;66.57
1652;BME280;823;49.028;8.454;2022-10-16T09:02:37;100503.41;;;20.88;65.84
1652;BME280;823;49.028;8.454;2022-10-16T09:07:54;100507.66;;;21.02;66.03
1652;BME280;823;49.028;8.454;2022-10-16T09:13:22;100510.91;;;21.06;65.78
1652;BME280;823;49.028;8.454;2022-10-16T09:18:34;100515.31;;;21.17;65.41
1652;BME280;823;49.028;8.454;2022-10-16T09:23:37;100527.22;;;20.98;63.73
1652;BME280;823;49.028;8.454;2022-10-16T09:28:38;100538.38;;;21.02;64.48
1652;BME280;823;49.028;8.454;2022-10-16T09:33:39;100546.03;;;21.05;64.33
1652;BME280;823;49.028;8.454;2022-10-16T09:38:41;100549.34;;;21.07;64.22
1652;BME280;823;49.028;8.454;2022-10-16T09:43:52;100553.19;;;21.14;64.49
1652;BME280;823;49.028;8.454;2022-10-16T09:48:56;100560.66;;;21.20;64.87
1652;BME280;823;49.028;8.454;2022-10-16T09:59:19;100560.81;;;21.41;64.51
1652;BME280;823;49.028;8.454;2022-10-16T10:04:22;100574.63;;;21.56;64.46
1652;BME280;823;49.028;8.454;2022-10-16T10:09:28;100576.31;;;21.69;64.35
1652;BME280;823;49.028;8.454;2022-10-16T10:14:37;100584.22;;;21.80;63.99
1652;BME280;823;49.028;8.454;2022-10-16T10:19:48;100585.66;;;21.84;63.97
1652;BME280;823;49.028;8.454;2022-10-16T10:35:32;100567.47;;;22.04;63.58
1652;BME280;823;49.028;8.454;2022-10-16T10:41:04;100575.94;;;22.30;63.34
1652;BME280;823;49.028;8.454;2022-10-16T10:46:31;100576.53;;;22.45;62.35
1652;BME280;823;49.028;8.454;2022-10-16T10:57:09;100573.97;;;22.66;60.14
1652;BME280;823;49.028;8.454;2022-10-16T11:02:23;100580.56;;;22.60;59.66
1652;BME280;823;49.028;8.454;2022-10-16T11:07:32;100566.91;;;22.55;59.35
1652;BME280;823;49.028;8.454;2022-10-16T11:12:40;100572.75;;;22.70;58.83
1652;BME280;823;49.028;8.454;2022-10-16T11:17:56;100570.16;;;22.91;59.28
1652;BME280;823;49.028;8.454;2022-10-16T11:28:39;100558.25;;;23.29;57.96
1652;BME280;823;49.028;8.454;2022-10-16T11:34:03;100562.69;;;23.50;57.15
1652;BME280;823;49.028;8.454;2022-10-16T11:39:21;100551.66;;;23.45;55.80
1652;BME280;823;49.028;8.454;2022-10-16T11:50:00;100541.69;;;23.79;55.35
1652;BME280;823;49.028;8.454;2022-10-16T11:55:05;100543.75;;;23.97;55.56
1652;BME280;823;49.028;8.454;2022-10-16T12:00:28;100539.72;;;24.03;53.34
1652;BME280;823;49.028;8.454;2022-10-16T12:10:35;100536.06;;;24.44;52.13
1652;BME280;823;49.028;8.454;2022-10-16T12:15:38;100548.31;;;24.55;51.40
1652;BME280;823;49.028;8.454;2022-10-16T12:20:38;100540.78;;;24.51;51.75
1652;BME280;823;49.028;8.454;2022-10-16T12:25:57;100539.97;;;24.50;50.81
1652;BME280;823;49.028;8.454;2022-10-16T12:36:04;100527.06;;;24.67;49.54
1652;BME280;823;49.028;8.454;2022-10-16T12:41:08;100523.28;;;24.50;49.80
1652;BME280;823;49.028;8.454;2022-10-16T13:07:51;100540.91;;;24.29;49.83
1652;BME280;823;49.028;8.454;2022-10-16T13:18:20;100552.72;;;24.25;50.52
1652;BME280;823;49.028;8.454;2022-10-16T13:23:37;100544.34;;;24.20;50.66
1652;BME280;823;49.028;8.454;2022-10-16T13:28:39;100544.06;;;24.13;50.92
1652;BME280;823;49.028;8.454;2022-10-16T13:33:42;100535.16;;;24.14;50.88
1652;BME280;823;49.028;8.454;2022-10-16T13:38:45;100537.56;;;24.18;50.86
1652;BME280;823;49.028;8.454;2022-10-16T13:43:49;100535.31;;;24.23;50.90
1652;BME280;823;49.028;8.454;2022-10-16T13:53:58;100537.97;;;24.23;51.47
1652;BME280;823;49.028;8.454;2022-10-16T13:59:05;100534.63;;;24.21;51.76
1652;BME280;823;49.028;8.454;2022-10-16T14:04:07;100540.34;;;24.16;51.74
1652;BME280;823;49.028;8.454;2022-10-16T14:09:18;100537.09;;;24.12;52.04
1652;BME280;823;49.028;8.454;2022-10-16T14:14:21;100543.78;;;24.07;52.07
1652;BME280;823;49.028;8.454;2022-10-16T14:19:25;100541.09;;;23.97;52.80
1652;BME280;823;49.028;8.454;2022-10-16T14:24:34;100538.97;;;23.91;53.07
1652;BME280;823;49.028;8.454;2022-10-16T14:29:34;100541.75;;;23.89;53.67
1652;BME280;823;49.028;8.454;2022-10-16T14:34:37;100526.78;;;24.00;54.33
1652;BME280;823;49.028;8.454;2022-10-16T14:39:40;100524.88;;;24.11;54.67
1652;BME280;823;49.028;8.454;2022-10-16T14:44:41;100533.75;;;24.10;54.56
1652;BME280;823;49.028;8.454;2022-10-16T14:49:42;100529.88;;;24.24;54.21
1652;BME280;823;49.028;8.454;2022-10-16T14:54:42;100528.78;;;24.37;54.00
1652;BME280;823;49.028;8.454;2022-10-16T14:59:43;100534.94;;;24.47;53.71
1652;BME280;823;49.028;8.454;2022-10-16T15:04:44;100528.69;;;24.48;53.09
1652;BME280;823;49.028;8.454;2022-10-16T15:09:45;100534.09;;;24.46;52.14
1652;BME280;823;49.028;8.454;2022-10-16T15:14:46;100530.91;;;24.43;52.75
1652;BME280;823;49.028;8.454;2022-10-16T15:19:47;100544.41;;;24.40;52.77
1652;BME280;823;49.028;8.454;2022-10-16T15:24:47;100541.34;;;24.35;53.28
1652;BME280;823;49.028;8.454;2022-10-16T15:29:47;100539.09;;;24.30;53.46
1652;BME280;823;49.028;8.454;2022-10-16T15:34:48;100541.03;;;24.28;53.88
1652;BME280;823;49.028;8.454;2022-10-16T15:39:50;100526.28;;;24.25;54.49
1652;BME280;823;49.028;8.454;2022-10-16T15:44:50;100531.03;;;24.22;54.53
1652;BME280;823;49.028;8.454;2022-10-16T15:49:50;100536.84;;;24.16;54.76
1652;BME280;823;49.028;8.454;2022-10-16T15:54:51;100540.84;;;24.10;55.25
1652;BME280;823;49.028;8.454;2022-10-16T15:59:51;100547.66;;;24.03;55.33
1652;BME280;823;49.028;8.454;2022-10-16T16:04:51;100550.81;;;23.96;55.65
1652;BME280;823;49.028;8.454;2022-10-16T16:09:52;100552.47;;;23.88;56.17
1652;BME280;823;49.028;8.454;2022-10-16T16:14:52;100555.03;;;23.78;56.73
1652;BME280;823;49.028;8.454;2022-10-16T16:19:52;100557.59;;;23.58;57.39
1652;BME280;823;49.028;8.454;2022-10-16T16:24:53;100553.53;;;23.54;57.47
1652;BME280;823;49.028;8.454;2022-10-16T16:29:53;100557.09;;;23.43;57.62
1652;BME280;823;49.028;8.454;2022-10-16T16:34:55;100562.56;;;23.31;57.83
1652;BME280;823;49.028;8.454;2022-10-16T16:39:55;100556.91;;;23.14;58.21
1652;BME280;823;49.028;8.454;2022-10-16T16:44:58;100562.56;;;22.98;58.23
1652;BME280;823;49.028;8.454;2022-10-16T16:49:59;100555.81;;;22.84;58.97
1652;BME280;823;49.028;8.454;2022-10-16T16:54:59;100561.25;;;22.71;59.04
1652;BME280;823;49.028;8.454;2022-10-16T16:59:59;100563.06;;;22.59;59.14
1652;BME280;823;49.028;8.454;2022-10-16T17:05:00;100563.13;;;22.48;59.92
1652;BME280;823;49.028;8.454;2022-10-16T17:10:01;100577.28;;;22.36;60.16
1652;BME280;823;49.028;8.454;2022-10-16T17:15:02;100576.31;;;22.25;60.24
1652;BME280;823;49.028;8.454;2022-10-16T17:20:03;100579.19;;;22.11;60.58
1652;BME280;823;49.028;8.454;2022-10-16T17:25:04;100586.16;;;22.01;60.82
1652;BME280;823;49.028;8.454;2022-10-16T17:30:06;100595.00;;;21.88;60.97
1652;BME280;823;49.028;8.454;2022-10-16T17:35:06;100595.00;;;21.77;61.42
1652;BME280;823;49.028;8.454;2022-10-16T17:40:09;100600.84;;;21.69;61.71
1652;BME280;823;49.028;8.454;2022-10-16T17:45:09;100600.47;;;21.63;61.80
1652;BME280;823;49.028;8.454;2022-10-16T17:50:10;100604.03;;;21.50;62.04
1652;BME280;823;49.028;8.454;2022-10-16T17:55:10;100601.56;;;21.36;62.40
1652;BME280;823;49.028;8.454;2022-10-16T18:00:11;100604.44;;;21.33;62.66
1652;BME280;823;49.028;8.454;2022-10-16T18:05:12;100610.28;;;21.36;62.52
1652;BME280;823;49.028;8.454;2022-10-16T18:10:12;100619.38;;;21.32;62.24
1652;BME280;823;49.028;8.454;2022-10-16T18:15:12;100620.47;;;21.30;62.55
1652;BME280;823;49.028;8.454;2022-10-16T18:20:13;100632.66;;;21.31;62.56
1652;BME280;823;49.028;8.454;2022-10-16T18:25:13;100623.53;;;21.23;62.58
1652;BME280;823;49.028;8.454;2022-10-16T18:30:13;100621.75;;;21.24;62.96
1652;BME280;823;49.028;8.454;2022-10-16T18:35:14;100631.69;;;21.32;62.57
1652;BME280;823;49.028;8.454;2022-10-16T18:40:14;100634.84;;;21.37;62.41
1652;BME280;823;49.028;8.454;2022-10-16T18:45:15;100630.78;;;21.44;61.87
1652;BME280;823;49.028;8.454;2022-10-16T18:50:15;100635.41;;;21.40;61.76
1652;BME280;823;49.028;8.454;2022-10-16T18:55:15;100626.78;;;21.27;62.44
1652;BME280;823;49.028;8.454;2022-10-16T19:00:16;100637.78;;;21.32;62.31
1652;BME280;823;49.028;8.454;2022-10-16T19:05:17;100638.06;;;21.40;61.87
1652;BME280;823;49.028;8.454;2022-10-16T19:10:17;100650.25;;;21.41;61.77
1652;BME280;823;49.028;8.454;2022-10-16T19:15:17;100646.06;;;21.39;61.35
1652;BME280;823;49.028;8.454;2022-10-16T19:20:18;100652.63;;;21.33;61.08
1652;BME280;823;49.028;8.454;2022-10-16T19:25:19;100660.13;;;21.26;61.37
1652;BME280;823;49.028;8.454;2022-10-16T19:30:21;100667.31;;;21.24;61.56
1652;BME280;823;49.028;8.454;2022-10-16T19:35:22;100671.81;;;21.22;61.45
1652;BME280;823;49.028;8.454;2022-10-16T19:40:22;100668.91;;;21.14;61.68
1652;BME280;823;49.028;8.454;2022-10-16T19:45:23;100673.59;;;21.11;61.70
1652;BME280;823;49.028;8.454;2022-10-16T19:50:23;100689.97;;;21.14;61.39
1652;BME280;823;49.028;8.454;2022-10-16T19:55:23;100678.22;;;21.07;61.33
1652;BME280;823;49.028;8.454;2022-10-16T20:00:24;100684.88;;;21.00;61.48
1652;BME280;823;49.028;8.454;2022-10-16T20:05:24;100692.25;;;20.95;61.00
1652;BME280;823;49.028;8.454;2022-10-16T20:10:24;100695.88;;;20.81;61.26
1652;BME280;823;49.028;8.454;2022-10-16T20:15:25;100701.88;;;20.70;61.69
1652;BME280;823;49.028;8.454;2022-10-16T20:20:25;100702.41;;;20.75;61.65
1652;BME280;823;49.028;8.454;2022-10-16T20:25:26;100713.03;;;20.73;61.62
1652;BME280;823;49.028;8.454;2022-10-16T20:30:26;100727.34;;;20.69;61.42
1652;BME280;823;49.028;8.454;2022-10-16T20:35:27;100729.75;;;20.59;61.55
1652;BME280;823;49.028;8.454;2022-10-16T20:40:27;100736.38;;;20.52;61.64
1652;BME280;823;49.028;8.454;2022-10-16T20:45:28;100744.16;;;20.41;61.43
1652;BME280;823;49.028;8.454;2022-10-16T20:50:29;100750.25;;;20.29;61.73
1652;BME280;823;49.028;8.454;2022-10-16T20:55:29;100751.81;;;20.18;61.90
1652;BME280;823;49.028;8.454;2022-10-16T21:00:30;100757.16;;;20.04;62.06
1652;BME280;823;49.028;8.454;2022-10-16T21:05:30;100760.50;;;19.93;61.86
1652;BME280;823;49.028;8.454;2022-10-16T21:10:33;100767.22;;;19.84;62.04
1652;BME280;823;49.028;8.454;2022-10-16T21:15:35;100775.09;;;19.70;62.77
1652;BME280;823;49.028;8.454;2022-10-16T21:20:41;100775.06;;;19.57;63.40
1652;BME280;823;49.028;8.454;2022-10-16T21:25:49;100786.50;;;19.56;62.82
1652;BME280;823;49.028;8.454;2022-10-16T21:30:49;100792.41;;;19.45;62.76
1652;BME280;823;49.028;8.454;2022-10-16T21:35:50;100793.03;;;19.36;62.23
1652;BME280;823;49.028;8.454;2022-10-16T21:40:50;100796.13;;;19.28;62.77
1652;BME280;823;49.028;8.454;2022-10-16T21:45:50;100797.47;;;19.21;63.19
1652;BME280;823;49.028;8.454;2022-10-16T21:50:53;100801.09;;;19.18;63.10
1652;BME280;823;49.028;8.454;2022-10-16T21:55:53;100789.13;;;19.14;63.40
1652;BME280;823;49.028;8.454;2022-10-16T22:00:53;100785.31;;;19.05;63.49
1652;BME280;823;49.028;8.454;2022-10-16T22:05:54;100786.91;;;19.08;63.30
1652;BME280;823;49.028;8.454;2022-10-16T22:11:04;100791.03;;;19.12;63.61
1652;BME280;823;49.028;8.454;2022-10-16T22:16:06;100796.44;;;19.09;63.35
1652;BME280;823;49.028;8.454;2022-10-16T22:21:08;100803.00;;;19.02;63.64
1652;BME280;823;49.028;8.454;2022-10-16T22:26:10;100803.56;;;18.93;62.94
1652;BME280;823;49.028;8.454;2022-10-16T22:31:13;100804.94;;;18.84;63.16
1652;BME280;823;49.028;8.454;2022-10-16T22:36:14;100803.75;;;18.75;63.34
1652;BME280;823;49.028;8.454;2022-10-16T22:41:15;100803.16;;;18.70;63.06
1652;BME280;823;49.028;8.454;2022-10-16T22:46:18;100822.63;;;18.66;63.32
1652;BME280;823;49.028;8.454;2022-10-16T22:51:19;100823.34;;;18.53;62.91
1652;BME280;823;49.028;8.454;2022-10-16T22:56:20;100822.75;;;18.34;63.65
1652;BME280;823;49.028;8.454;2022-10-16T23:01:27;100823.53;;;18.36;63.36
1652;BME280;823;49.028;8.454;2022-10-16T23:06:28;100821.44;;;18.27;63.94
1652;BME280;823;49.028;8.454;2022-10-16T23:11:29;100834.34;;;18.30;63.49
1652;BME280;823;49.028;8.454;2022-10-16T23:16:30;100837.91;;;18.29;63.45
1652;BME280;823;49.028;8.454;2022-10-16T23:21:30;100833.94;;;18.21;63.21
1652;BME280;823;49.028;8.454;2022-10-16T23:26:33;100846.72;;;18.12;63.26
1652;BME280;823;49.028;8.454;2022-10-16T23:31:33;100848.03;;;18.04;63.80
1652;BME280;823;49.028;8.454;2022-10-16T23:36:34;100839.00;;;17.94;64.18
1652;BME280;823;49.028;8.454;2022-10-16T23:41:34;100844.47;;;17.90;63.54
1652;BME280;823;49.028;8.454;2022-10-16T23:46:35;100854.69;;;17.78;64.06
1652;BME280;823;49.028;8.454;2022-10-16T23:51:35;100865.75;;;17.83;63.20
1652;BME280;823;49.028;8.454;2022-10-16T23:56:35;100869.28;;;17.66;64.14
